sensor_id;sensor_type;location;lat;lon;timestamp;P1;durP1;ratioP1;P2;durP2;ratioP2
5225;SDS011;2632;51.666;7.146;2023-07-02T00:02:04;5.50;;;4.50;;
5225;SDS011;2632;51.666;7.146;2023-07-02T00:04:31;12.93;;;4.50;;
5225;SDS011;2632;51.666;7.146;2023-07-02T00:06:58;6.80;;;4.37;;
5225;SDS011;2632;51.666;7.146;2023-07-02T00:09:24;8.00;;;4.97;;
5225;SDS011;2632;51.666;7.146;2023-07-02T00:11:53;5.73;;;4.30;;
5225;SDS011;2632;51.666;7.146;2023-07-02T00:14:20;7.17;;;4.40;;
5225;SDS011;2632;51.666;7.146;2023-07-02T00:16:47;8.30;;;4.77;;
5225;SDS011;2632;51.666;7.146;2023-07-02T00:19:14;6.53;;;4.30;;
5225;SDS011;2632;51.666;7.146;2023-07-02T00:21:42;6.70;;;4.60;;
5225;SDS011;2632;51.666;7.146;2023-07-02T00:24:09;7.37;;;4.50;;
5225;SDS011;2632;51.666;7.146;2023-07-02T00:26:36;6.30;;;4.40;;
5225;SDS011;2632;51.666;7.146;2023-07-02T00:29:04;8.83;;;4.90;;
5225;SDS011;2632;51.666;7.146;2023-07-02T00:31:32;7.20;;;4.20;;
5225;SDS011;2632;51.666;7.146;2023-07-02T00:34:00;8.07;;;5.10;;
5225;SDS011;2632;51.666;7.146;2023-07-02T00:36:30;8.00;;;4.60;;
5225;SDS011;2632;51.666;7.146;2023-07-02T00:38:57;7.23;;;4.63;;
5225;SDS011;2632;51.666;7.146;2023-07-02T00:41:24;9.33;;;5.43;;
5225;SDS011;2632;51.666;7.146;2023-07-02T00:43:52;7.77;;;5.30;;
5225;SDS011;2632;51.666;7.146;2023-07-02T00:46:21;7.80;;;4.50;;
5225;SDS011;2632;51.666;7.146;2023-07-02T00:48:52;13.40;;;5.87;;
5225;SDS011;2632;51.666;7.146;2023-07-02T00:51:24;7.80;;;5.37;;
5225;SDS011;2632;51.666;7.146;2023-07-02T00:53:53;6.67;;;5.13;;
5225;SDS011;2632;51.666;7.146;2023-07-02T00:56:22;15.90;;;5.43;;
5225;SDS011;2632;51.666;7.146;2023-07-02T00:58:51;9.60;;;5.77;;
5225;SDS011;2632;51.666;7.146;2023-07-02T01:01:19;8.30;;;5.17;;
5225;SDS011;2632;51.666;7.146;2023-07-02T01:03:51;8.43;;;5.27;;
5225;SDS011;2632;51.666;7.146;2023-07-02T01:06:23;11.90;;;5.77;;
5225;SDS011;2632;51.666;7.146;2023-07-02T01:08:52;12.63;;;5.27;;
5225;SDS011;2632;51.666;7.146;2023-07-02T01:11:42;10.97;;;6.10;;
5225;SDS011;2632;51.666;7.146;2023-07-02T01:14:12;13.17;;;6.13;;
5225;SDS011;2632;51.666;7.146;2023-07-02T01:16:45;16.53;;;6.20;;
5225;SDS011;2632;51.666;7.146;2023-07-02T01:19:16;10.43;;;6.20;;
5225;SDS011;2632;51.666;7.146;2023-07-02T01:21:47;17.60;;;5.50;;
5225;SDS011;2632;51.666;7.146;2023-07-02T01:24:16;8.07;;;4.90;;
5225;SDS011;2632;51.666;7.146;2023-07-02T01:26:43;11.83;;;7.57;;
5225;SDS011;2632;51.666;7.146;2023-07-02T01:31:41;10.90;;;5.00;;
5225;SDS011;2632;51.666;7.146;2023-07-02T01:34:08;7.30;;;4.97;;
5225;SDS011;2632;51.666;7.146;2023-07-02T01:36:35;9.00;;;5.40;;
5225;SDS011;2632;51.666;7.146;2023-07-02T01:39:03;13.43;;;5.30;;
5225;SDS011;2632;51.666;7.146;2023-07-02T01:41:32;13.10;;;5.63;;
5225;SDS011;2632;51.666;7.146;2023-07-02T01:44:10;11.90;;;5.67;;
5225;SDS011;2632;51.666;7.146;2023-07-02T01:46:37;11.90;;;6.07;;
5225;SDS011;2632;51.666;7.146;2023-07-02T01:49:03;10.20;;;5.90;;
5225;SDS011;2632;51.666;7.146;2023-07-02T01:51:30;9.93;;;5.37;;
5225;SDS011;2632;51.666;7.146;2023-07-02T01:53:57;13.27;;;6.97;;
5225;SDS011;2632;51.666;7.146;2023-07-02T01:56:24;9.23;;;5.07;;
5225;SDS011;2632;51.666;7.146;2023-07-02T01:58:51;12.63;;;5.23;;
5225;SDS011;2632;51.666;7.146;2023-07-02T02:01:17;17.20;;;5.37;;
5225;SDS011;2632;51.666;7.146;2023-07-02T02:03:44;7.97;;;5.20;;
5225;SDS011;2632;51.666;7.146;2023-07-02T02:06:10;10.73;;;5.37;;
5225;SDS011;2632;51.666;7.146;2023-07-02T02:08:37;14.13;;;6.20;;
5225;SDS011;2632;51.666;7.146;2023-07-02T02:11:04;10.27;;;5.70;;
5225;SDS011;2632;51.666;7.146;2023-07-02T02:13:30;11.33;;;5.53;;
5225;SDS011;2632;51.666;7.146;2023-07-02T02:15:57;11.47;;;5.60;;
5225;SDS011;2632;51.666;7.146;2023-07-02T02:18:24;18.37;;;5.57;;
5225;SDS011;2632;51.666;7.146;2023-07-02T02:20:50;10.97;;;5.60;;
5225;SDS011;2632;51.666;7.146;2023-07-02T02:23:17;12.90;;;5.30;;
5225;SDS011;2632;51.666;7.146;2023-07-02T02:25:43;11.27;;;5.53;;
5225;SDS011;2632;51.666;7.146;2023-07-02T02:28:11;9.60;;;5.40;;
5225;SDS011;2632;51.666;7.146;2023-07-02T02:30:38;17.50;;;5.83;;
5225;SDS011;2632;51.666;7.146;2023-07-02T02:33:05;11.27;;;5.30;;
5225;SDS011;2632;51.666;7.146;2023-07-02T02:35:31;11.80;;;5.60;;
5225;SDS011;2632;51.666;7.146;2023-07-02T02:38:01;11.53;;;5.80;;
5225;SDS011;2632;51.666;7.146;2023-07-02T02:40:28;9.77;;;5.50;;
5225;SDS011;2632;51.666;7.146;2023-07-02T02:42:55;11.87;;;5.83;;
5225;SDS011;2632;51.666;7.146;2023-07-02T02:45:22;14.30;;;6.40;;
5225;SDS011;2632;51.666;7.146;2023-07-02T02:47:48;12.70;;;6.43;;
5225;SDS011;2632;51.666;7.146;2023-07-02T02:50:15;15.13;;;6.90;;
5225;SDS011;2632;51.666;7.146;2023-07-02T02:52:42;14.30;;;6.20;;
5225;SDS011;2632;51.666;7.146;2023-07-02T02:55:09;13.73;;;6.03;;
5225;SDS011;2632;51.666;7.146;2023-07-02T02:57:36;14.57;;;6.60;;
5225;SDS011;2632;51.666;7.146;2023-07-02T03:00:03;13.93;;;6.27;;
5225;SDS011;2632;51.666;7.146;2023-07-02T03:02:31;10.80;;;6.03;;
5225;SDS011;2632;51.666;7.146;2023-07-02T03:04:58;15.50;;;6.53;;
5225;SDS011;2632;51.666;7.146;2023-07-02T03:07:28;16.90;;;7.77;;
5225;SDS011;2632;51.666;7.146;2023-07-02T03:09:55;14.83;;;6.50;;
5225;SDS011;2632;51.666;7.146;2023-07-02T03:12:22;18.23;;;7.70;;
5225;SDS011;2632;51.666;7.146;2023-07-02T03:14:52;15.10;;;6.57;;
5225;SDS011;2632;51.666;7.146;2023-07-02T03:17:21;17.90;;;7.90;;
5225;SDS011;2632;51.666;7.146;2023-07-02T03:19:47;18.40;;;6.93;;
5225;SDS011;2632;51.666;7.146;2023-07-02T03:22:14;18.77;;;6.87;;
5225;SDS011;2632;51.666;7.146;2023-07-02T03:24:41;15.97;;;7.17;;
5225;SDS011;2632;51.666;7.146;2023-07-02T03:27:08;13.40;;;7.13;;
5225;SDS011;2632;51.666;7.146;2023-07-02T03:29:35;13.87;;;6.50;;
5225;SDS011;2632;51.666;7.146;2023-07-02T03:32:02;13.20;;;6.30;;
5225;SDS011;2632;51.666;7.146;2023-07-02T03:34:28;14.90;;;6.30;;
5225;SDS011;2632;51.666;7.146;2023-07-02T03:36:55;15.93;;;6.57;;
5225;SDS011;2632;51.666;7.146;2023-07-02T03:39:22;13.70;;;6.53;;
5225;SDS011;2632;51.666;7.146;2023-07-02T03:41:48;13.47;;;5.50;;
5225;SDS011;2632;51.666;7.146;2023-07-02T03:44:15;13.20;;;5.90;;
5225;SDS011;2632;51.666;7.146;2023-07-02T03:46:42;19.10;;;7.00;;
5225;SDS011;2632;51.666;7.146;2023-07-02T03:49:09;12.30;;;6.00;;
5225;SDS011;2632;51.666;7.146;2023-07-02T03:51:36;12.90;;;5.93;;
5225;SDS011;2632;51.666;7.146;2023-07-02T03:54:03;16.87;;;6.47;;
5225;SDS011;2632;51.666;7.146;2023-07-02T03:56:29;14.40;;;5.27;;
5225;SDS011;2632;51.666;7.146;2023-07-02T03:58:56;15.30;;;6.20;;
5225;SDS011;2632;51.666;7.146;2023-07-02T04:01:23;15.10;;;6.23;;
5225;SDS011;2632;51.666;7.146;2023-07-02T04:03:50;15.43;;;6.20;;
5225;SDS011;2632;51.666;7.146;2023-07-02T04:06:18;15.43;;;6.63;;
5225;SDS011;2632;51.666;7.146;2023-07-02T04:08:45;19.80;;;6.17;;
5225;SDS011;2632;51.666;7.146;2023-07-02T04:11:12;14.93;;;5.80;;
5225;SDS011;2632;51.666;7.146;2023-07-02T04:13:39;9.83;;;5.07;;
5225;SDS011;2632;51.666;7.146;2023-07-02T04:16:06;12.27;;;5.40;;
5225;SDS011;2632;51.666;7.146;2023-07-02T04:18:33;13.00;;;5.60;;
5225;SDS011;2632;51.666;7.146;2023-07-02T04:21:01;14.00;;;5.67;;
5225;SDS011;2632;51.666;7.146;2023-07-02T04:23:28;14.23;;;6.03;;
5225;SDS011;2632;51.666;7.146;2023-07-02T04:25:56;15.13;;;5.80;;
5225;SDS011;2632;51.666;7.146;2023-07-02T04:28:43;17.53;;;7.20;;
5225;SDS011;2632;51.666;7.146;2023-07-02T04:31:09;17.13;;;6.30;;
5225;SDS011;2632;51.666;7.146;2023-07-02T04:33:36;12.43;;;6.10;;
5225;SDS011;2632;51.666;7.146;2023-07-02T04:36:03;13.70;;;6.60;;
5225;SDS011;2632;51.666;7.146;2023-07-02T04:38:30;11.13;;;5.37;;
5225;SDS011;2632;51.666;7.146;2023-07-02T04:40:57;16.73;;;5.53;;
5225;SDS011;2632;51.666;7.146;2023-07-02T04:43:27;13.10;;;4.93;;
5225;SDS011;2632;51.666;7.146;2023-07-02T04:45:57;11.57;;;5.13;;
5225;SDS011;2632;51.666;7.146;2023-07-02T04:48:24;11.00;;;5.40;;
5225;SDS011;2632;51.666;7.146;2023-07-02T04:50:51;14.13;;;5.40;;
5225;SDS011;2632;51.666;7.146;2023-07-02T04:53:17;19.60;;;5.60;;
5225;SDS011;2632;51.666;7.146;2023-07-02T04:55:44;12.43;;;4.90;;
5225;SDS011;2632;51.666;7.146;2023-07-02T04:58:11;13.87;;;5.47;;
5225;SDS011;2632;51.666;7.146;2023-07-02T05:00:37;17.20;;;5.93;;
5225;SDS011;2632;51.666;7.146;2023-07-02T05:03:04;17.47;;;5.70;;
5225;SDS011;2632;51.666;7.146;2023-07-02T05:05:31;18.07;;;5.83;;
5225;SDS011;2632;51.666;7.146;2023-07-02T05:07:57;19.90;;;6.80;;
5225;SDS011;2632;51.666;7.146;2023-07-02T05:10:24;13.03;;;5.80;;
5225;SDS011;2632;51.666;7.146;2023-07-02T05:12:51;14.33;;;6.40;;
5225;SDS011;2632;51.666;7.146;2023-07-02T05:15:17;18.10;;;6.67;;
5225;SDS011;2632;51.666;7.146;2023-07-02T05:17:44;17.63;;;6.17;;
5225;SDS011;2632;51.666;7.146;2023-07-02T05:20:11;13.67;;;6.40;;
5225;SDS011;2632;51.666;7.146;2023-07-02T05:22:38;14.10;;;7.03;;
5225;SDS011;2632;51.666;7.146;2023-07-02T05:25:04;19.10;;;7.10;;
5225;SDS011;2632;51.666;7.146;2023-07-02T05:27:31;19.70;;;8.07;;
5225;SDS011;2632;51.666;7.146;2023-07-02T05:29:58;18.80;;;7.73;;
5225;SDS011;2632;51.666;7.146;2023-07-02T05:32:25;18.47;;;9.17;;
5225;SDS011;2632;51.666;7.146;2023-07-02T05:34:51;22.20;;;9.17;;
5225;SDS011;2632;51.666;7.146;2023-07-02T05:37:18;26.23;;;10.60;;
5225;SDS011;2632;51.666;7.146;2023-07-02T05:39:45;23.17;;;10.43;;
5225;SDS011;2632;51.666;7.146;2023-07-02T05:42:11;20.77;;;9.60;;
5225;SDS011;2632;51.666;7.146;2023-07-02T05:44:38;21.90;;;9.40;;
5225;SDS011;2632;51.666;7.146;2023-07-02T05:47:05;25.33;;;10.20;;
5225;SDS011;2632;51.666;7.146;2023-07-02T05:49:32;25.67;;;10.60;;
5225;SDS011;2632;51.666;7.146;2023-07-02T05:51:58;21.97;;;11.00;;
5225;SDS011;2632;51.666;7.146;2023-07-02T05:54:25;24.33;;;10.40;;
5225;SDS011;2632;51.666;7.146;2023-07-02T05:56:52;20.47;;;9.43;;
5225;SDS011;2632;51.666;7.146;2023-07-02T05:59:18;22.33;;;8.90;;
5225;SDS011;2632;51.666;7.146;2023-07-02T06:01:45;19.40;;;9.33;;
5225;SDS011;2632;51.666;7.146;2023-07-02T06:04:12;28.17;;;9.93;;
5225;SDS011;2632;51.666;7.146;2023-07-02T06:06:39;24.47;;;8.50;;
5225;SDS011;2632;51.666;7.146;2023-07-02T06:09:05;25.67;;;9.50;;
5225;SDS011;2632;51.666;7.146;2023-07-02T06:11:32;25.83;;;11.00;;
5225;SDS011;2632;51.666;7.146;2023-07-02T06:13:59;20.60;;;8.60;;
5225;SDS011;2632;51.666;7.146;2023-07-02T06:16:25;28.50;;;10.17;;
5225;SDS011;2632;51.666;7.146;2023-07-02T06:18:52;21.57;;;7.77;;
5225;SDS011;2632;51.666;7.146;2023-07-02T06:21:19;17.50;;;8.40;;
5225;SDS011;2632;51.666;7.146;2023-07-02T06:23:46;13.83;;;6.73;;
5225;SDS011;2632;51.666;7.146;2023-07-02T06:26:12;17.33;;;8.30;;
5225;SDS011;2632;51.666;7.146;2023-07-02T06:28:39;17.10;;;7.20;;
5225;SDS011;2632;51.666;7.146;2023-07-02T06:31:06;19.93;;;7.27;;
5225;SDS011;2632;51.666;7.146;2023-07-02T06:33:33;13.60;;;7.27;;
5225;SDS011;2632;51.666;7.146;2023-07-02T06:35:59;17.27;;;7.50;;
5225;SDS011;2632;51.666;7.146;2023-07-02T06:38:26;20.77;;;7.40;;
5225;SDS011;2632;51.666;7.146;2023-07-02T06:40:53;18.93;;;7.50;;
5225;SDS011;2632;51.666;7.146;2023-07-02T06:43:19;21.00;;;7.83;;
5225;SDS011;2632;51.666;7.146;2023-07-02T06:45:46;18.57;;;7.37;;
5225;SDS011;2632;51.666;7.146;2023-07-02T06:48:13;20.57;;;7.07;;
5225;SDS011;2632;51.666;7.146;2023-07-02T06:50:43;22.57;;;8.77;;
5225;SDS011;2632;51.666;7.146;2023-07-02T06:53:11;18.77;;;7.43;;
5225;SDS011;2632;51.666;7.146;2023-07-02T06:55:38;18.30;;;7.27;;
5225;SDS011;2632;51.666;7.146;2023-07-02T06:58:05;16.17;;;6.67;;
5225;SDS011;2632;51.666;7.146;2023-07-02T07:00:32;17.07;;;6.60;;
5225;SDS011;2632;51.666;7.146;2023-07-02T07:03:04;19.13;;;7.53;;
5225;SDS011;2632;51.666;7.146;2023-07-02T07:05:31;20.50;;;8.17;;
5225;SDS011;2632;51.666;7.146;2023-07-02T07:08:01;16.23;;;7.40;;
5225;SDS011;2632;51.666;7.146;2023-07-02T07:10:28;23.50;;;7.37;;
5225;SDS011;2632;51.666;7.146;2023-07-02T07:13:00;17.70;;;7.17;;
5225;SDS011;2632;51.666;7.146;2023-07-02T07:15:32;16.37;;;6.80;;
5225;SDS011;2632;51.666;7.146;2023-07-02T07:18:01;19.40;;;7.33;;
5225;SDS011;2632;51.666;7.146;2023-07-02T07:20:28;19.37;;;7.70;;
5225;SDS011;2632;51.666;7.146;2023-07-02T07:22:55;18.07;;;7.80;;
5225;SDS011;2632;51.666;7.146;2023-07-02T07:25:22;20.47;;;7.83;;
5225;SDS011;2632;51.666;7.146;2023-07-02T07:27:49;21.40;;;8.90;;
5225;SDS011;2632;51.666;7.146;2023-07-02T07:30:16;16.50;;;7.67;;
5225;SDS011;2632;51.666;7.146;2023-07-02T07:32:51;16.47;;;7.53;;
5225;SDS011;2632;51.666;7.146;2023-07-02T07:35:19;22.57;;;7.50;;
5225;SDS011;2632;51.666;7.146;2023-07-02T07:37:47;21.73;;;7.17;;
5225;SDS011;2632;51.666;7.146;2023-07-02T07:40:14;21.33;;;7.10;;
5225;SDS011;2632;51.666;7.146;2023-07-02T07:42:41;16.20;;;7.00;;
5225;SDS011;2632;51.666;7.146;2023-07-02T07:45:09;15.87;;;6.83;;
5225;SDS011;2632;51.666;7.146;2023-07-02T07:47:37;22.07;;;9.17;;
5225;SDS011;2632;51.666;7.146;2023-07-02T07:50:05;14.87;;;6.90;;
5225;SDS011;2632;51.666;7.146;2023-07-02T07:52:37;18.57;;;7.60;;
5225;SDS011;2632;51.666;7.146;2023-07-02T07:55:07;15.97;;;7.20;;
5225;SDS011;2632;51.666;7.146;2023-07-02T07:57:35;16.17;;;7.33;;
5225;SDS011;2632;51.666;7.146;2023-07-02T08:00:03;19.17;;;7.47;;
5225;SDS011;2632;51.666;7.146;2023-07-02T08:02:33;17.90;;;7.60;;
5225;SDS011;2632;51.666;7.146;2023-07-02T08:04:59;14.93;;;6.70;;
5225;SDS011;2632;51.666;7.146;2023-07-02T08:07:26;19.47;;;8.00;;
5225;SDS011;2632;51.666;7.146;2023-07-02T08:09:53;16.97;;;6.30;;
5225;SDS011;2632;51.666;7.146;2023-07-02T08:12:19;16.60;;;7.10;;
5225;SDS011;2632;51.666;7.146;2023-07-02T08:14:46;13.73;;;6.43;;
5225;SDS011;2632;51.666;7.146;2023-07-02T08:17:13;18.37;;;8.03;;
5225;SDS011;2632;51.666;7.146;2023-07-02T08:19:40;17.03;;;6.30;;
5225;SDS011;2632;51.666;7.146;2023-07-02T08:22:06;13.13;;;6.10;;
5225;SDS011;2632;51.666;7.146;2023-07-02T08:24:33;16.17;;;6.40;;
5225;SDS011;2632;51.666;7.146;2023-07-02T08:27:00;14.77;;;6.60;;
5225;SDS011;2632;51.666;7.146;2023-07-02T08:29:30;12.73;;;5.90;;
5225;SDS011;2632;51.666;7.146;2023-07-02T08:31:57;14.90;;;6.20;;
5225;SDS011;2632;51.666;7.146;2023-07-02T08:34:24;15.10;;;5.83;;
5225;SDS011;2632;51.666;7.146;2023-07-02T08:36:51;16.50;;;7.27;;
5225;SDS011;2632;51.666;7.146;2023-07-02T08:39:17;14.03;;;5.60;;
5225;SDS011;2632;51.666;7.146;2023-07-02T08:41:45;16.20;;;6.33;;
5225;SDS011;2632;51.666;7.146;2023-07-02T08:44:12;13.13;;;6.30;;
5225;SDS011;2632;51.666;7.146;2023-07-02T08:46:40;10.50;;;5.30;;
5225;SDS011;2632;51.666;7.146;2023-07-02T08:49:08;15.67;;;6.93;;
5225;SDS011;2632;51.666;7.146;2023-07-02T08:51:35;14.43;;;4.93;;
5225;SDS011;2632;51.666;7.146;2023-07-02T08:54:02;11.33;;;5.20;;
5225;SDS011;2632;51.666;7.146;2023-07-02T08:56:29;14.90;;;5.87;;
5225;SDS011;2632;51.666;7.146;2023-07-02T08:58:56;9.40;;;4.80;;
5225;SDS011;2632;51.666;7.146;2023-07-02T09:01:23;11.37;;;5.03;;
5225;SDS011;2632;51.666;7.146;2023-07-02T09:03:50;14.50;;;5.37;;
5225;SDS011;2632;51.666;7.146;2023-07-02T09:06:17;10.13;;;4.87;;
5225;SDS011;2632;51.666;7.146;2023-07-02T09:08:44;11.47;;;5.50;;
5225;SDS011;2632;51.666;7.146;2023-07-02T09:11:12;11.83;;;5.07;;
5225;SDS011;2632;51.666;7.146;2023-07-02T09:13:41;9.90;;;4.70;;
5225;SDS011;2632;51.666;7.146;2023-07-02T09:16:25;11.63;;;5.37;;
5225;SDS011;2632;51.666;7.146;2023-07-02T09:19:01;12.47;;;5.00;;
5225;SDS011;2632;51.666;7.146;2023-07-02T09:21:43;9.50;;;4.70;;
5225;SDS011;2632;51.666;7.146;2023-07-02T09:24:15;12.23;;;5.30;;
5225;SDS011;2632;51.666;7.146;2023-07-02T09:26:47;11.20;;;4.70;;
5225;SDS011;2632;51.666;7.146;2023-07-02T09:31:57;7.87;;;4.33;;
5225;SDS011;2632;51.666;7.146;2023-07-02T09:34:39;7.70;;;4.37;;
5225;SDS011;2632;51.666;7.146;2023-07-02T09:37:08;11.00;;;4.37;;
5225;SDS011;2632;51.666;7.146;2023-07-02T09:39:35;9.70;;;4.70;;
5225;SDS011;2632;51.666;7.146;2023-07-02T09:42:05;13.73;;;4.97;;
5225;SDS011;2632;51.666;7.146;2023-07-02T09:44:33;11.40;;;4.67;;
5225;SDS011;2632;51.666;7.146;2023-07-02T09:47:04;9.37;;;5.10;;
5225;SDS011;2632;51.666;7.146;2023-07-02T09:49:33;11.33;;;4.83;;
5225;SDS011;2632;51.666;7.146;2023-07-02T09:52:08;11.43;;;4.70;;
5225;SDS011;2632;51.666;7.146;2023-07-02T09:54:36;10.40;;;4.33;;
5225;SDS011;2632;51.666;7.146;2023-07-02T09:57:04;10.10;;;5.07;;
5225;SDS011;2632;51.666;7.146;2023-07-02T09:59:34;8.90;;;5.03;;
5225;SDS011;2632;51.666;7.146;2023-07-02T10:02:01;9.40;;;4.90;;
5225;SDS011;2632;51.666;7.146;2023-07-02T10:04:38;11.73;;;5.00;;
5225;SDS011;2632;51.666;7.146;2023-07-02T10:07:13;12.50;;;4.83;;
5225;SDS011;2632;51.666;7.146;2023-07-02T10:09:52;9.97;;;4.90;;
5225;SDS011;2632;51.666;7.146;2023-07-02T10:12:23;10.80;;;5.00;;
5225;SDS011;2632;51.666;7.146;2023-07-02T10:14:51;12.30;;;5.40;;
5225;SDS011;2632;51.666;7.146;2023-07-02T10:17:23;9.20;;;5.17;;
5225;SDS011;2632;51.666;7.146;2023-07-02T10:19:58;8.40;;;5.00;;
5225;SDS011;2632;51.666;7.146;2023-07-02T10:22:27;12.40;;;5.13;;
5225;SDS011;2632;51.666;7.146;2023-07-02T10:24:57;13.73;;;5.40;;
5225;SDS011;2632;51.666;7.146;2023-07-02T10:27:32;13.50;;;5.50;;
5225;SDS011;2632;51.666;7.146;2023-07-02T10:30:09;13.03;;;5.70;;
5225;SDS011;2632;51.666;7.146;2023-07-02T10:32:36;9.57;;;5.13;;
5225;SDS011;2632;51.666;7.146;2023-07-02T10:35:16;9.80;;;5.20;;
5225;SDS011;2632;51.666;7.146;2023-07-02T10:37:45;9.37;;;4.47;;
5225;SDS011;2632;51.666;7.146;2023-07-02T10:40:12;8.97;;;4.30;;
5225;SDS011;2632;51.666;7.146;2023-07-02T10:42:49;14.03;;;5.43;;
5225;SDS011;2632;51.666;7.146;2023-07-02T10:45:16;13.20;;;5.20;;
5225;SDS011;2632;51.666;7.146;2023-07-02T10:47:44;12.37;;;5.70;;
5225;SDS011;2632;51.666;7.146;2023-07-02T10:50:18;13.50;;;4.93;;
5225;SDS011;2632;51.666;7.146;2023-07-02T10:52:46;12.43;;;5.10;;
5225;SDS011;2632;51.666;7.146;2023-07-02T10:55:17;12.57;;;6.17;;
5225;SDS011;2632;51.666;7.146;2023-07-02T10:57:48;11.13;;;4.73;;
5225;SDS011;2632;51.666;7.146;2023-07-02T11:00:19;15.60;;;4.53;;
5225;SDS011;2632;51.666;7.146;2023-07-02T11:02:46;14.47;;;5.93;;
5225;SDS011;2632;51.666;7.146;2023-07-02T11:05:13;8.10;;;4.47;;
5225;SDS011;2632;51.666;7.146;2023-07-02T11:07:41;9.47;;;4.87;;
5225;SDS011;2632;51.666;7.146;2023-07-02T11:10:08;8.80;;;4.50;;
5225;SDS011;2632;51.666;7.146;2023-07-02T11:12:36;16.80;;;4.80;;
5225;SDS011;2632;51.666;7.146;2023-07-02T11:15:21;10.33;;;4.10;;
5225;SDS011;2632;51.666;7.146;2023-07-02T11:17:48;9.47;;;4.73;;
5225;SDS011;2632;51.666;7.146;2023-07-02T11:20:15;8.67;;;4.50;;
5225;SDS011;2632;51.666;7.146;2023-07-02T11:22:42;9.80;;;4.60;;
5225;SDS011;2632;51.666;7.146;2023-07-02T11:25:18;10.40;;;4.27;;
5225;SDS011;2632;51.666;7.146;2023-07-02T11:27:48;11.00;;;4.47;;
5225;SDS011;2632;51.666;7.146;2023-07-02T11:30:15;10.10;;;4.57;;
5225;SDS011;2632;51.666;7.146;2023-07-02T11:32:48;11.60;;;4.20;;
5225;SDS011;2632;51.666;7.146;2023-07-02T11:35:17;10.90;;;3.73;;
5225;SDS011;2632;51.666;7.146;2023-07-02T11:37:44;11.03;;;4.70;;
5225;SDS011;2632;51.666;7.146;2023-07-02T11:40:12;8.00;;;4.43;;
5225;SDS011;2632;51.666;7.146;2023-07-02T11:42:40;11.13;;;4.37;;
5225;SDS011;2632;51.666;7.146;2023-07-02T11:45:07;10.23;;;4.40;;
5225;SDS011;2632;51.666;7.146;2023-07-02T11:47:34;10.33;;;4.40;;
5225;SDS011;2632;51.666;7.146;2023-07-02T11:50:01;10.63;;;3.97;;
5225;SDS011;2632;51.666;7.146;2023-07-02T11:52:47;7.60;;;3.97;;
5225;SDS011;2632;51.666;7.146;2023-07-02T11:55:14;6.20;;;4.10;;
5225;SDS011;2632;51.666;7.146;2023-07-02T11:57:41;9.10;;;4.67;;
5225;SDS011;2632;51.666;7.146;2023-07-02T12:00:08;10.87;;;3.90;;
5225;SDS011;2632;51.666;7.146;2023-07-02T12:02:35;8.33;;;3.90;;
5225;SDS011;2632;51.666;7.146;2023-07-02T12:05:02;9.30;;;4.57;;
5225;SDS011;2632;51.666;7.146;2023-07-02T12:07:33;8.80;;;4.40;;
5225;SDS011;2632;51.666;7.146;2023-07-02T12:10:00;10.43;;;4.67;;
5225;SDS011;2632;51.666;7.146;2023-07-02T12:12:27;11.70;;;4.73;;
5225;SDS011;2632;51.666;7.146;2023-07-02T12:14:54;11.30;;;4.97;;
5225;SDS011;2632;51.666;7.146;2023-07-02T12:17:20;7.33;;;4.10;;
5225;SDS011;2632;51.666;7.146;2023-07-02T12:19:47;7.70;;;3.90;;
5225;SDS011;2632;51.666;7.146;2023-07-02T12:22:14;9.10;;;4.60;;
5225;SDS011;2632;51.666;7.146;2023-07-02T12:24:43;15.27;;;4.80;;
5225;SDS011;2632;51.666;7.146;2023-07-02T12:27:13;8.63;;;4.50;;
5225;SDS011;2632;51.666;7.146;2023-07-02T12:29:39;8.47;;;4.47;;
5225;SDS011;2632;51.666;7.146;2023-07-02T12:32:06;9.20;;;4.23;;
5225;SDS011;2632;51.666;7.146;2023-07-02T12:34:33;9.40;;;4.87;;
5225;SDS011;2632;51.666;7.146;2023-07-02T12:37:00;11.63;;;4.87;;
5225;SDS011;2632;51.666;7.146;2023-07-02T12:39:27;9.63;;;4.23;;
5225;SDS011;2632;51.666;7.146;2023-07-02T12:41:53;10.00;;;4.40;;
5225;SDS011;2632;51.666;7.146;2023-07-02T12:44:20;8.83;;;4.00;;
5225;SDS011;2632;51.666;7.146;2023-07-02T12:46:47;6.83;;;4.10;;
5225;SDS011;2632;51.666;7.146;2023-07-02T12:49:14;8.90;;;4.70;;
5225;SDS011;2632;51.666;7.146;2023-07-02T12:51:40;11.03;;;4.60;;
5225;SDS011;2632;51.666;7.146;2023-07-02T12:54:07;10.47;;;4.70;;
5225;SDS011;2632;51.666;7.146;2023-07-02T12:56:34;11.77;;;4.60;;
5225;SDS011;2632;51.666;7.146;2023-07-02T12:59:02;7.40;;;4.63;;
5225;SDS011;2632;51.666;7.146;2023-07-02T13:01:29;13.20;;;5.00;;
5225;SDS011;2632;51.666;7.146;2023-07-02T13:03:55;11.00;;;4.40;;
5225;SDS011;2632;51.666;7.146;2023-07-02T13:06:22;9.93;;;4.23;;
5225;SDS011;2632;51.666;7.146;2023-07-02T13:08:49;8.43;;;4.50;;
5225;SDS011;2632;51.666;7.146;2023-07-02T13:11:15;13.13;;;5.60;;
5225;SDS011;2632;51.666;7.146;2023-07-02T13:13:42;10.33;;;5.00;;
5225;SDS011;2632;51.666;7.146;2023-07-02T13:16:09;9.67;;;4.37;;
5225;SDS011;2632;51.666;7.146;2023-07-02T13:18:35;10.10;;;5.00;;
5225;SDS011;2632;51.666;7.146;2023-07-02T13:21:02;9.33;;;4.40;;
5225;SDS011;2632;51.666;7.146;2023-07-02T13:23:29;9.93;;;5.27;;
5225;SDS011;2632;51.666;7.146;2023-07-02T13:25:55;12.30;;;4.67;;
5225;SDS011;2632;51.666;7.146;2023-07-02T13:28:22;12.70;;;5.00;;
5225;SDS011;2632;51.666;7.146;2023-07-02T13:30:51;11.40;;;4.57;;
5225;SDS011;2632;51.666;7.146;2023-07-02T13:33:17;12.47;;;5.10;;
5225;SDS011;2632;51.666;7.146;2023-07-02T13:35:44;12.23;;;5.53;;
5225;SDS011;2632;51.666;7.146;2023-07-02T13:38:12;12.63;;;5.20;;
5225;SDS011;2632;51.666;7.146;2023-07-02T13:40:38;14.73;;;5.33;;
5225;SDS011;2632;51.666;7.146;2023-07-02T13:43:05;10.63;;;5.03;;
5225;SDS011;2632;51.666;7.146;2023-07-02T13:45:32;10.23;;;4.90;;
5225;SDS011;2632;51.666;7.146;2023-07-02T13:47:58;11.83;;;5.10;;
5225;SDS011;2632;51.666;7.146;2023-07-02T13:50:25;12.40;;;5.60;;
5225;SDS011;2632;51.666;7.146;2023-07-02T13:52:52;11.23;;;5.13;;
5225;SDS011;2632;51.666;7.146;2023-07-02T13:55:18;13.03;;;5.00;;
5225;SDS011;2632;51.666;7.146;2023-07-02T13:57:47;11.53;;;5.40;;
5225;SDS011;2632;51.666;7.146;2023-07-02T14:00:13;14.20;;;6.00;;
5225;SDS011;2632;51.666;7.146;2023-07-02T14:02:40;12.63;;;5.37;;
5225;SDS011;2632;51.666;7.146;2023-07-02T14:05:07;11.63;;;5.60;;
5225;SDS011;2632;51.666;7.146;2023-07-02T14:07:34;9.77;;;5.03;;
5225;SDS011;2632;51.666;7.146;2023-07-02T14:10:01;10.63;;;5.30;;
5225;SDS011;2632;51.666;7.146;2023-07-02T14:12:29;12.60;;;5.10;;
5225;SDS011;2632;51.666;7.146;2023-07-02T14:14:55;12.70;;;4.80;;
5225;SDS011;2632;51.666;7.146;2023-07-02T14:17:22;8.93;;;5.10;;
5225;SDS011;2632;51.666;7.146;2023-07-02T14:19:52;17.83;;;6.57;;
5225;SDS011;2632;51.666;7.146;2023-07-02T14:22:18;11.07;;;5.90;;
5225;SDS011;2632;51.666;7.146;2023-07-02T14:24:45;10.13;;;5.90;;
5225;SDS011;2632;51.666;7.146;2023-07-02T14:27:12;10.23;;;5.50;;
5225;SDS011;2632;51.666;7.146;2023-07-02T14:29:39;11.50;;;5.80;;
5225;SDS011;2632;51.666;7.146;2023-07-02T14:32:06;12.40;;;5.60;;
5225;SDS011;2632;51.666;7.146;2023-07-02T14:34:33;14.13;;;6.30;;
5225;SDS011;2632;51.666;7.146;2023-07-02T14:37:01;11.53;;;5.80;;
5225;SDS011;2632;51.666;7.146;2023-07-02T14:39:29;13.93;;;6.37;;
5225;SDS011;2632;51.666;7.146;2023-07-02T14:41:56;13.17;;;6.20;;
5225;SDS011;2632;51.666;7.146;2023-07-02T14:44:22;16.40;;;6.60;;
5225;SDS011;2632;51.666;7.146;2023-07-02T14:46:49;15.30;;;6.20;;
5225;SDS011;2632;51.666;7.146;2023-07-02T14:49:16;15.23;;;7.40;;
5225;SDS011;2632;51.666;7.146;2023-07-02T14:51:43;10.17;;;5.20;;
5225;SDS011;2632;51.666;7.146;2023-07-02T14:54:10;11.43;;;5.53;;
5225;SDS011;2632;51.666;7.146;2023-07-02T14:56:38;12.47;;;5.97;;
5225;SDS011;2632;51.666;7.146;2023-07-02T14:59:05;15.20;;;5.83;;
5225;SDS011;2632;51.666;7.146;2023-07-02T15:01:33;12.30;;;5.37;;
5225;SDS011;2632;51.666;7.146;2023-07-02T15:03:59;10.33;;;5.37;;
5225;SDS011;2632;51.666;7.146;2023-07-02T15:06:26;10.07;;;6.30;;
5225;SDS011;2632;51.666;7.146;2023-07-02T15:08:55;11.73;;;5.80;;
5225;SDS011;2632;51.666;7.146;2023-07-02T15:11:22;9.47;;;5.30;;
5225;SDS011;2632;51.666;7.146;2023-07-02T15:13:49;10.73;;;5.63;;
5225;SDS011;2632;51.666;7.146;2023-07-02T15:16:15;11.70;;;5.07;;